createdAt,value
2019-02-20T00:00:08.577Z,0
2019-02-20T00:05:07.324Z,0
2019-02-20T00:10:06.725Z,0
2019-02-20T00:15:07.667Z,0
2019-02-20T00:20:06.492Z,0
2019-02-20T00:25:07.393Z,0
2019-02-20T00:29:07.450Z,0
2019-02-20T00:34:08.667Z,0
2019-02-20T00:39:06.900Z,0
2019-02-20T00:44:06.650Z,0
2019-02-20T00:49:06.561Z,0
2019-02-20T00:54:06.467Z,0
2019-02-20T00:59:06.482Z,0
2019-02-20T01:04:06.495Z,0
2019-02-20T01:08:06.761Z,0
2019-02-20T01:13:07.040Z,0
2019-02-20T01:18:06.863Z,0
2019-02-20T01:23:06.743Z,0
2019-02-20T01:28:06.879Z,0
2019-02-20T01:33:06.958Z,0
2019-02-20T01:38:06.694Z,0
2019-02-20T01:43:07.238Z,0
2019-02-20T01:47:06.809Z,0
2019-02-20T01:52:06.577Z,0
2019-02-20T01:57:06.483Z,0
2019-02-20T02:02:08.404Z,0
2019-02-20T02:07:08.477Z,0
2019-02-20T02:12:07.756Z,0
2019-02-20T02:17:07.289Z,0
2019-02-20T02:21:07.196Z,0
2019-02-20T02:26:11.458Z,0
2019-02-20T02:31:07.037Z,0
2019-02-20T02:36:06.969Z,0
2019-02-20T02:41:07.289Z,0
2019-02-20T02:46:07.290Z,0
2019-02-20T02:51:07.287Z,0
2019-02-20T02:56:07.262Z,0
2019-02-20T03:00:09.532Z,0
2019-02-20T03:05:06.510Z,0
2019-02-20T03:10:07.195Z,0
2019-02-20T03:15:08.815Z,0
2019-02-20T03:20:06.577Z,0
2019-02-20T03:25:06.616Z,0
2019-02-20T03:30:08.205Z,0
2019-02-20T03:34:09.397Z,0
2019-02-20T03:39:08.003Z,0
2019-02-20T03:40:07.167Z,0
2019-02-20T03:44:07.234Z,0
2019-02-20T03:49:06.925Z,0
2019-02-20T03:54:06.892Z,0
2019-02-20T03:59:06.846Z,0
2019-02-20T04:04:07.141Z,0
2019-02-20T04:09:07.553Z,0
2019-02-20T04:13:06.534Z,0
2019-02-20T04:18:07.165Z,0
2019-02-20T04:23:07.135Z,0
2019-02-20T04:28:07.134Z,0
2019-02-20T04:33:07.124Z,0
2019-02-20T04:38:07.146Z,0
2019-02-20T04:43:06.643Z,0
2019-02-20T04:48:07.242Z,0
2019-02-20T04:52:07.203Z,0
2019-02-20T04:57:07.278Z,0
2019-02-20T05:02:06.671Z,0
2019-02-20T05:07:06.624Z,0
2019-02-20T05:12:07.094Z,0
2019-02-20T05:17:07.083Z,0
2019-02-20T05:22:07.098Z,0
2019-02-20T05:27:06.642Z,0
2019-02-20T05:31:07.068Z,0
2019-02-20T05:36:07.011Z,0
2019-02-20T05:41:06.384Z,0
2019-02-20T05:46:07.204Z,1.67
2019-02-20T05:51:06.897Z,6.67
2019-02-20T05:56:06.815Z,18.33
2019-02-20T06:01:07.356Z,39.17
2019-02-20T06:06:07.310Z,72.5
2019-02-20T06:10:06.761Z,150.83
2019-02-20T06:15:08.095Z,249.17
2019-02-20T06:20:07.173Z,373.33
2019-02-20T06:25:07.232Z,591.67
2019-02-20T06:30:08.621Z,727.5
2019-02-20T06:35:06.795Z,741.67
2019-02-20T06:40:07.165Z,1068.33
2019-02-20T06:45:08.181Z,1150
2019-02-20T06:49:07.295Z,1091.67
2019-02-20T06:54:07.063Z,915.83
2019-02-20T06:59:06.926Z,1475.83
2019-02-20T07:04:06.767Z,1997.5
2019-02-20T07:09:07.031Z,2187.5
2019-02-20T07:14:06.881Z,2738.33
2019-02-20T07:19:06.577Z,3330
2019-02-20T07:24:06.608Z,3715.83
2019-02-20T07:28:06.971Z,3797.5
2019-02-20T07:33:06.794Z,3764.17
2019-02-20T07:38:06.657Z,4094.17
2019-02-20T07:43:06.923Z,4578.33
2019-02-20T07:48:06.589Z,5283.33
2019-02-20T07:53:06.820Z,7676.67
2019-02-20T07:58:07.345Z,9395
2019-02-20T08:03:06.419Z,9789.17
2019-02-20T08:07:06.768Z,9624.17
2019-02-20T08:12:07.000Z,7921.67
2019-02-20T08:17:06.752Z,8012.5
2019-02-20T08:22:06.840Z,9397.5
2019-02-20T08:27:06.776Z,9312.5
2019-02-20T08:32:06.727Z,7999.17
2019-02-20T08:37:06.721Z,7949.17
2019-02-20T08:41:07.763Z,8192.5
2019-02-20T08:46:06.742Z,8609.17
2019-02-20T08:51:06.723Z,10301.67
2019-02-20T08:56:06.635Z,11095.83
2019-02-20T09:01:06.774Z,11075.83
2019-02-20T09:06:06.920Z,10467.5
2019-02-20T09:11:06.445Z,10062.5
2019-02-20T09:15:07.734Z,9779.17
2019-02-20T09:20:07.905Z,8995
2019-02-20T09:25:07.022Z,8975.83
2019-02-20T09:30:08.214Z,9850
2019-02-20T09:35:06.348Z,10310.83
2019-02-20T09:40:06.538Z,9786.67
2019-02-20T09:45:09.217Z,11725.83
2019-02-20T09:50:06.711Z,14468.33
2019-02-20T09:54:07.426Z,14767.5
2019-02-20T09:59:07.334Z,20608.33
2019-02-20T10:04:06.525Z,21136.67
2019-02-20T10:09:07.895Z,17595
2019-02-20T10:14:06.633Z,15761.67
2019-02-20T10:19:06.559Z,15378.33
2019-02-20T10:24:06.469Z,13904.17
2019-02-20T10:28:07.348Z,11976.67
2019-02-20T10:33:07.029Z,10462.5
2019-02-20T10:38:06.765Z,12910
2019-02-20T10:43:07.086Z,14425.83
2019-02-20T10:48:06.989Z,19451.67
2019-02-20T10:53:06.790Z,26239.17
2019-02-20T10:58:06.494Z,27105
2019-02-20T11:03:06.500Z,18375.83
2019-02-20T11:07:06.340Z,21427.5
2019-02-20T11:12:06.631Z,21014.17
2019-02-20T11:13:06.758Z,21014.17
2019-02-20T11:17:06.479Z,20441.67
2019-02-20T11:22:07.666Z,22187.5
2019-02-20T11:27:07.238Z,24320
2019-02-20T11:32:06.880Z,20106.67
2019-02-20T11:37:06.592Z,19705
2019-02-20T11:42:06.915Z,20417.5
2019-02-20T11:46:07.142Z,19725.83
2019-02-20T11:51:06.877Z,21206.67
2019-02-20T11:56:06.745Z,18957.5
2019-02-20T12:01:07.048Z,14025.83
2019-02-20T12:06:06.847Z,10930
2019-02-20T12:11:07.184Z,9449.17
2019-02-20T12:16:06.824Z,31975.83
2019-02-20T12:21:07.257Z,31614.17
2019-02-20T12:25:07.145Z,32805
2019-02-20T12:30:08.515Z,24410.83
2019-02-20T12:35:06.521Z,25456.67
2019-02-20T12:40:06.801Z,20876.67
2019-02-20T12:45:07.997Z,30056.67
2019-02-20T12:50:07.166Z,15850
2019-02-20T12:55:06.914Z,13409.17
2019-02-20T12:59:08.387Z,12040
2019-02-20T13:04:06.494Z,11620
2019-02-20T13:09:07.638Z,12219.17
2019-02-20T13:14:06.635Z,14010.83
2019-02-20T13:19:06.459Z,12975
2019-02-20T13:24:06.540Z,13079.17
2019-02-20T13:29:06.548Z,16689.17
2019-02-20T13:33:06.636Z,18819.17
2019-02-20T13:38:06.882Z,14865
2019-02-20T13:43:06.975Z,12283.33
2019-02-20T13:48:07.103Z,10348.33
2019-02-20T13:53:07.212Z,11037.5
2019-02-20T13:58:07.217Z,10235.83
2019-02-20T14:03:06.628Z,10229.17
2019-02-20T14:07:06.897Z,8770
2019-02-20T14:12:07.981Z,7905
2019-02-20T14:17:07.383Z,7236.67
2019-02-20T14:22:08.302Z,6956.67
2019-02-20T14:27:11.479Z,7558.33
2019-02-20T14:32:06.506Z,7285
2019-02-20T14:37:06.379Z,6380
2019-02-20T14:41:06.661Z,5495
2019-02-20T14:46:06.502Z,6102.5
2019-02-20T14:47:06.607Z,6102.5
2019-02-20T14:51:06.632Z,4488.33
2019-02-20T14:56:06.541Z,5361.67
2019-02-20T15:01:06.587Z,4520
2019-02-20T15:06:06.474Z,4207.5
2019-02-20T15:11:06.820Z,3840
2019-02-20T15:16:06.499Z,3476.67
2019-02-20T15:20:07.189Z,3188.33
2019-02-20T15:25:06.816Z,2849.17
2019-02-20T15:30:07.722Z,2540
2019-02-20T15:35:06.716Z,2422.5
2019-02-20T15:40:06.751Z,2578.33
2019-02-20T15:45:07.663Z,2690
2019-02-20T15:50:08.710Z,2505.83
2019-02-20T15:54:07.332Z,2253.33
2019-02-20T15:55:06.457Z,2253.33
2019-02-20T15:59:06.502Z,2176.67
2019-02-20T16:04:07.540Z,2085
2019-02-20T16:09:07.153Z,1845.83
2019-02-20T16:14:07.078Z,1364.17
2019-02-20T16:19:06.656Z,894.17
2019-02-20T16:24:06.669Z,529.17
2019-02-20T16:28:06.935Z,285
2019-02-20T16:33:06.594Z,159.17
2019-02-20T16:38:06.565Z,98.33
2019-02-20T16:43:07.155Z,61.67
2019-02-20T16:48:06.687Z,31.67
2019-02-20T16:53:06.812Z,13.33
2019-02-20T16:58:06.974Z,5
2019-02-20T17:02:07.373Z,1.67
2019-02-20T17:07:07.333Z,0
2019-02-20T17:12:06.565Z,0
2019-02-20T17:17:06.543Z,0
2019-02-20T17:22:06.405Z,0
2019-02-20T17:27:07.383Z,0
2019-02-20T17:32:07.232Z,0
2019-02-20T17:36:07.654Z,0
2019-02-20T17:41:06.974Z,0
2019-02-20T17:46:06.802Z,0
2019-02-20T17:51:06.651Z,0
2019-02-20T17:56:06.360Z,0
2019-02-20T18:01:06.474Z,0
2019-02-20T18:06:07.383Z,0
2019-02-20T18:11:07.942Z,0
2019-02-20T18:15:08.596Z,0
2019-02-20T18:20:06.961Z,0
2019-02-20T18:25:06.911Z,0
2019-02-20T18:30:08.167Z,0
2019-02-20T18:35:07.084Z,0
2019-02-20T18:40:06.531Z,0
2019-02-20T18:45:07.948Z,0
2019-02-20T18:49:06.918Z,0
2019-02-20T18:54:06.899Z,0
2019-02-20T18:59:06.774Z,0
2019-02-20T19:04:08.538Z,0
2019-02-20T19:09:07.037Z,0
2019-02-20T19:14:09.702Z,0
2019-02-20T19:19:07.404Z,0
2019-02-20T19:23:06.655Z,0
2019-02-20T19:28:06.650Z,0
2019-02-20T19:33:06.452Z,0
2019-02-20T19:38:09.433Z,0
2019-02-20T19:43:07.175Z,0
2019-02-20T19:48:06.903Z,0
2019-02-20T19:53:06.806Z,0
2019-02-20T19:58:06.818Z,0
2019-02-20T20:02:07.802Z,0
2019-02-20T20:07:06.768Z,0
2019-02-20T20:12:07.283Z,0
2019-02-20T20:17:07.023Z,0
2019-02-20T20:22:06.883Z,0
2019-02-20T20:27:06.765Z,0
2019-02-20T20:32:06.491Z,0
2019-02-20T20:36:06.797Z,0
2019-02-20T20:41:09.788Z,0
2019-02-20T20:46:06.635Z,0
2019-02-20T20:51:06.547Z,0
2019-02-20T20:56:06.484Z,0
2019-02-20T21:01:06.913Z,0
2019-02-20T21:06:06.947Z,0
2019-02-20T21:11:06.687Z,0
2019-02-20T21:15:08.093Z,0
2019-02-20T21:20:06.734Z,0
2019-02-20T21:25:06.688Z,0
2019-02-20T21:30:07.809Z,0
2019-02-20T21:35:07.039Z,0
2019-02-20T21:40:07.151Z,0
2019-02-20T21:45:08.500Z,0
2019-02-20T21:49:06.737Z,0
2019-02-20T21:54:06.792Z,0
2019-02-20T21:59:06.705Z,0
2019-02-20T22:04:06.953Z,0
2019-02-20T22:09:07.074Z,0
2019-02-20T22:14:06.998Z,0
2019-02-20T22:19:06.439Z,0
2019-02-20T22:24:06.385Z,0
2019-02-20T22:28:07.145Z,0
2019-02-20T22:33:06.507Z,0
2019-02-20T22:38:07.228Z,0
2019-02-20T22:43:06.477Z,0
2019-02-20T22:48:07.357Z,0
2019-02-20T22:53:07.179Z,0
2019-02-20T22:58:06.942Z,0
2019-02-20T23:03:06.465Z,0
2019-02-20T23:07:07.795Z,0
2019-02-20T23:12:07.175Z,0
2019-02-20T23:17:07.102Z,0
2019-02-20T23:22:06.903Z,0
2019-02-20T23:27:06.749Z,0
2019-02-20T23:32:06.570Z,0
2019-02-20T23:37:06.547Z,0
2019-02-20T23:41:07.289Z,0
2019-02-20T23:46:07.386Z,0
2019-02-20T23:51:06.556Z,0
2019-02-20T23:56:06.989Z,0
